Freshford, Canada
Current Conditions -  °F | °C
As of 3:00 AM on Friday 31 Oct 2014 (Local Time) from CYQD Reporting Station
Clear Clear  
Wind Chill: 11°   Ceiling: Unl
Heat Index: 21°   Visibility: 15mi
Dew Point: 19°   Wind: 9mph
Humidity: 93%   Direction: 160°SSE
Pressure: 30.46"   Gusts: NA
Location:  52.68°N, 101.23°W
Report Text: CYQD 310800Z 16008KT 15SM SKC M06/M07 A3046 RMK FROIN AURBOSLP335
Loading
Personal Weather Stations






























Interactive Weather Map
Tropical Storm Tracking
New forecast layout! Learn more

10-Day Weather Forecast

Advertisements
Track Severe Weather on mobile